This is the latest recevied weather packets stored in our database for station/object K5IDL. If no packets are shown the sender has not sent any weather packets the latest 10 day(s).
| Time | Temp. | Humidity | Pressure | Rain* | Wind** | Luminosity | Snow |
|---|---|---|---|---|---|---|---|
| 1777491308 | 17.78° C | 78% | 1015.7 hPa | 0 mm | - | 32 W/m² | - |
| 1777491005 | 17.22° C | 78% | 1015.3 hPa | 0 mm | - | 60 W/m² | - |
| 1777490700 | 17.22° C | 78% | 1015.3 hPa | 0 mm | - | 31 W/m² | - |
| 1777490396 | 17.22° C | 77% | 1015 hPa | 0 mm | - | 46 W/m² | - |
| 1777490094 | 17.22° C | 77% | 1015.4 hPa | 0 mm | - | 44 W/m² | - |
| 1777489791 | 17.78° C | 78% | 1015.4 hPa | 0 mm | - | 42 W/m² | - |
| 1777489488 | 17.78° C | 76% | 1015.4 hPa | 0 mm | - | 69 W/m² | - |
| 1777489185 | 17.78° C | 77% | 1015 hPa | 0 mm | - | 88 W/m² | - |
| 1777488882 | 17.22° C | 78% | 1014.7 hPa | 0 mm | - | 162 W/m² | - |
| 1777488579 | 17.22° C | 79% | 1015 hPa | 0 mm | - | 102 W/m² | - |
| 1777488277 | 17.22° C | 79% | 1015.5 hPa | 0 mm | - | 60 W/m² | - |
| 1777487975 | 17.22° C | 78% | 1015.8 hPa | 0 mm | - | 47 W/m² | - |
| 1777487672 | 17.22° C | 80% | 1016.2 hPa | 0 mm | - | 89 W/m² | - |
| 1777487369 | 16.67° C | 79% | 1016.2 hPa | 0 mm | - | 64 W/m² | - |
| 1777487067 | 17.22° C | 80% | 1016 hPa | 0 mm | - | 63 W/m² | - |
| 1777486762 | 17.22° C | 80% | 1016.3 hPa | 0 mm | - | 50 W/m² | - |
| 1777486461 | 17.22° C | 80% | 1016.4 hPa | 0 mm | - | 62 W/m² | - |
| 1777486158 | 17.22° C | 80% | 1016.5 hPa | 0 mm | - | 63 W/m² | - |
| 1777485854 | 17.22° C | 80% | 1016.5 hPa | 0 mm | - | 65 W/m² | - |
| 1777485549 | 17.22° C | 80% | 1016.7 hPa | 0 mm | - | 58 W/m² | - |
| 1777485246 | 17.22° C | 80% | 1016.5 hPa | 0 mm | - | 113 W/m² | - |
| 1777484942 | 17.22° C | 80% | 1016.6 hPa | 0 mm | - | 73 W/m² | - |
| 1777484639 | 17.22° C | 80% | 1017 hPa | 0 mm | - | 62 W/m² | - |
| 1777484336 | 16.67° C | 81% | 1016.7 hPa | 0 mm | - | 60 W/m² | - |
| 1777484031 | 16.67° C | 80% | 1016.9 hPa | 0 mm | - | 64 W/m² | - |
* Rain latest hour (hover to see other rain measurements)
** Current wind speed in m/s (hover to see current wind gust speed)